createdAt,value
2022-07-28T00:00:29.882Z,3.55
2022-07-28T00:02:56.725Z,3.72
2022-07-28T00:05:23.552Z,3.65
2022-07-28T00:07:50.333Z,3.70
2022-07-28T00:10:18.165Z,3.65
2022-07-28T00:12:45.184Z,3.63
2022-07-28T00:15:12.333Z,3.58
2022-07-28T00:17:39.761Z,3.78
2022-07-28T00:20:08.443Z,3.65
2022-07-28T00:22:35.194Z,3.58
2022-07-28T00:25:01.981Z,3.72
2022-07-28T00:27:28.753Z,3.80
2022-07-28T00:29:55.571Z,3.67
2022-07-28T00:32:22.412Z,3.90
2022-07-28T00:34:53.650Z,3.70
2022-07-28T00:37:20.630Z,3.50
2022-07-28T00:39:47.374Z,3.58
2022-07-28T00:42:18.673Z,3.97
2022-07-28T00:44:45.461Z,3.80
2022-07-28T00:47:12.429Z,3.97
2022-07-28T00:49:39.843Z,4.30
2022-07-28T00:52:08.784Z,3.85
2022-07-28T00:54:36.270Z,4.17
2022-07-28T00:57:03.341Z,4.55
2022-07-28T00:59:30.899Z,4.55
2022-07-28T01:02:02.196Z,3.90
2022-07-28T01:04:29.943Z,4.60
2022-07-28T01:07:03.152Z,3.95
2022-07-28T01:09:45.462Z,4.18
2022-07-28T01:12:30.350Z,3.92
2022-07-28T01:15:19.571Z,3.83
2022-07-28T01:18:05.174Z,4.10
2022-07-28T01:21:03.764Z,4.00
2022-07-28T01:23:33.447Z,3.92
2022-07-28T01:26:18.540Z,4.28
2022-07-28T01:29:43.188Z,4.30
2022-07-28T01:32:19.144Z,3.78
2022-07-28T01:34:52.590Z,4.53
2022-07-28T01:37:26.092Z,4.15
2022-07-28T01:40:00.423Z,4.20
2022-07-28T01:42:33.580Z,4.50
2022-07-28T01:45:02.436Z,3.80
2022-07-28T01:47:30.265Z,4.28
2022-07-28T01:50:02.732Z,3.80
2022-07-28T01:52:31.705Z,3.47
2022-07-28T01:55:28.688Z,3.90
2022-07-28T01:57:56.894Z,4.25
2022-07-28T02:00:26.198Z,3.75
2022-07-28T02:02:56.101Z,4.05
2022-07-28T02:05:24.696Z,4.10
2022-07-28T02:07:53.522Z,4.00
2022-07-28T02:10:21.730Z,4.70
2022-07-28T02:12:50.670Z,4.22
2022-07-28T02:15:19.415Z,3.93
2022-07-28T02:17:47.763Z,4.28
2022-07-28T02:20:16.542Z,4.25
2022-07-28T02:22:45.580Z,4.22
2022-07-28T02:25:19.304Z,4.03
2022-07-28T02:28:09.003Z,4.10
2022-07-28T02:30:47.214Z,4.03
2022-07-28T02:33:25.388Z,4.57
2022-07-28T02:36:14.223Z,4.10
2022-07-28T02:38:47.122Z,3.92
2022-07-28T02:41:22.771Z,4.30
2022-07-28T02:43:52.808Z,3.90
2022-07-28T02:46:24.249Z,4.57
2022-07-28T02:48:57.048Z,4.25
2022-07-28T02:51:27.053Z,4.20
2022-07-28T02:56:22.810Z,4.07
2022-07-28T02:58:51.993Z,4.07
2022-07-28T03:01:19.781Z,4.07
2022-07-28T03:03:48.293Z,3.88
2022-07-28T03:06:18.332Z,4.25
2022-07-28T03:08:45.261Z,3.85
2022-07-28T03:11:14.107Z,3.65
2022-07-28T03:13:41.111Z,3.38
2022-07-28T03:16:08.542Z,3.38
2022-07-28T03:18:35.432Z,4.00
2022-07-28T03:21:02.239Z,3.72
2022-07-28T03:23:35.090Z,3.95
2022-07-28T03:26:09.630Z,4.00
2022-07-28T03:28:38.043Z,4.78
2022-07-28T03:31:09.626Z,3.80
2022-07-28T03:33:37.132Z,3.40
2022-07-28T03:36:09.380Z,3.35
2022-07-28T03:38:41.320Z,3.35
2022-07-28T03:41:10.344Z,3.85
2022-07-28T03:43:38.170Z,4.10
2022-07-28T03:46:08.602Z,3.65
2022-07-28T03:48:37.975Z,4.10
2022-07-28T03:51:04.810Z,3.60
2022-07-28T03:53:31.580Z,4.18
2022-07-28T03:55:58.532Z,4.03
2022-07-28T03:58:29.016Z,4.22
2022-07-28T04:00:56.856Z,4.10
2022-07-28T04:03:42.785Z,4.18
2022-07-28T04:06:10.939Z,4.50
2022-07-28T04:08:37.691Z,4.55
2022-07-28T04:11:04.568Z,4.60
2022-07-28T04:13:32.334Z,4.22
2022-07-28T04:16:00.424Z,4.38
2022-07-28T04:18:27.321Z,4.50
2022-07-28T04:20:54.134Z,4.20
2022-07-28T04:23:21.071Z,4.30
2022-07-28T04:25:48.493Z,4.30
2022-07-28T04:28:16.046Z,4.32
2022-07-28T04:30:44.085Z,4.75
2022-07-28T04:33:11.321Z,4.60
2022-07-28T04:35:38.174Z,4.30
2022-07-28T04:38:04.982Z,4.35
2022-07-28T04:40:31.799Z,4.50
2022-07-28T04:42:58.501Z,4.15
2022-07-28T04:45:25.322Z,4.30
2022-07-28T04:47:53.401Z,4.00
2022-07-28T04:50:21.627Z,4.13
2022-07-28T04:52:49.993Z,4.68
2022-07-28T04:55:17.722Z,4.57
2022-07-28T04:57:45.024Z,4.90
2022-07-28T05:00:14.398Z,4.90
2022-07-28T05:02:43.026Z,4.70
2022-07-28T05:05:10.589Z,4.97
2022-07-28T05:07:38.740Z,5.35
2022-07-28T05:10:07.205Z,4.93
2022-07-28T05:12:34.065Z,4.30
2022-07-28T05:15:01.049Z,4.32
2022-07-28T05:17:27.971Z,5.22
2022-07-28T05:19:54.828Z,4.75
2022-07-28T05:22:21.577Z,5.47
2022-07-28T05:24:48.321Z,5.10
2022-07-28T05:27:15.071Z,4.97
2022-07-28T05:29:47.830Z,5.15
2022-07-28T05:32:17.407Z,5.30
2022-07-28T05:34:45.660Z,5.07
2022-07-28T05:37:12.540Z,4.75
2022-07-28T05:39:39.633Z,5.22
2022-07-28T05:42:06.574Z,5.43
2022-07-28T05:44:37.970Z,5.25
2022-07-28T05:47:05.904Z,4.68
2022-07-28T05:49:32.809Z,5.25
2022-07-28T05:51:59.693Z,5.00
2022-07-28T05:54:26.465Z,6.30
2022-07-28T05:56:53.219Z,5.32
2022-07-28T05:59:20.136Z,4.72
2022-07-28T06:01:47.030Z,4.45
2022-07-28T06:04:27.112Z,4.47
2022-07-28T06:06:55.362Z,4.03
2022-07-28T06:09:22.086Z,4.43
2022-07-28T06:11:51.004Z,3.80
2022-07-28T06:14:18.791Z,3.08
2022-07-28T06:16:51.449Z,2.65
2022-07-28T06:19:19.364Z,2.95
2022-07-28T06:21:46.131Z,2.83
2022-07-28T06:24:13.171Z,2.83
2022-07-28T06:26:44.359Z,2.30
2022-07-28T06:29:12.155Z,2.78
2022-07-28T06:31:41.149Z,2.45
2022-07-28T06:34:08.205Z,2.53
2022-07-28T06:36:35.078Z,2.20
2022-07-28T06:39:02.564Z,2.55
2022-07-28T06:41:29.583Z,2.30
2022-07-28T06:44:02.719Z,2.47
2022-07-28T06:46:29.802Z,2.75
2022-07-28T06:49:00.219Z,2.40
2022-07-28T06:51:27.349Z,2.30
2022-07-28T06:53:56.025Z,2.05
2022-07-28T06:56:23.573Z,2.33
2022-07-28T06:58:50.528Z,2.25
2022-07-28T07:03:54.878Z,2.00
2022-07-28T07:06:21.734Z,2.20
2022-07-28T07:08:48.916Z,2.42
2022-07-28T07:11:15.765Z,1.98
2022-07-28T07:13:42.640Z,2.35
2022-07-28T07:16:09.590Z,2.13
2022-07-28T07:18:36.421Z,2.63
2022-07-28T07:21:03.493Z,2.30
2022-07-28T07:23:30.349Z,2.38
2022-07-28T07:25:57.421Z,1.92
2022-07-28T07:28:24.646Z,2.00
2022-07-28T07:30:51.466Z,2.28
2022-07-28T07:33:18.405Z,1.95
2022-07-28T07:35:45.223Z,2.03
2022-07-28T07:38:12.332Z,1.67
2022-07-28T07:40:39.259Z,1.80
2022-07-28T07:43:06.251Z,2.42
2022-07-28T07:45:34.552Z,2.20
2022-07-28T07:48:03.160Z,2.22
2022-07-28T07:50:30.411Z,2.23
2022-07-28T07:52:57.193Z,2.65
2022-07-28T07:55:24.076Z,2.20
2022-07-28T07:57:50.934Z,1.77
2022-07-28T08:00:28.659Z,2.33
2022-07-28T08:02:57.421Z,1.92
2022-07-28T08:05:34.869Z,2.05
2022-07-28T08:08:05.224Z,2.10
2022-07-28T08:10:33.012Z,2.40
2022-07-28T08:12:59.744Z,2.65
2022-07-28T08:15:26.590Z,2.42
2022-07-28T08:17:53.459Z,2.25
2022-07-28T08:20:20.350Z,2.22
2022-07-28T08:22:57.231Z,2.38
2022-07-28T08:25:25.189Z,1.90
2022-07-28T08:27:51.973Z,2.22
2022-07-28T08:30:23.706Z,2.20
2022-07-28T08:32:57.086Z,2.63
2022-07-28T08:35:35.041Z,2.20
2022-07-28T08:38:06.565Z,2.45
2022-07-28T08:40:35.354Z,2.33
2022-07-28T08:43:30.742Z,2.22
2022-07-28T08:45:59.852Z,2.40
2022-07-28T08:48:30.449Z,2.45
2022-07-28T08:51:10.521Z,2.42
2022-07-28T08:53:40.094Z,1.90
2022-07-28T08:56:08.649Z,2.10
2022-07-28T08:58:37.081Z,2.35
2022-07-28T09:01:07.738Z,2.03
2022-07-28T09:03:36.314Z,2.15
2022-07-28T09:06:03.335Z,2.22
2022-07-28T09:08:30.174Z,2.25
2022-07-28T09:10:57.129Z,2.30
2022-07-28T09:13:24.192Z,2.72
2022-07-28T09:15:51.210Z,2.40
2022-07-28T09:18:18.739Z,2.42
2022-07-28T09:20:45.883Z,2.50
2022-07-28T09:23:43.401Z,2.22
2022-07-28T09:26:11.745Z,2.53
2022-07-28T09:28:51.384Z,2.85
2022-07-28T09:31:19.526Z,2.50
2022-07-28T09:33:55.053Z,2.95
2022-07-28T09:36:22.374Z,2.10
2022-07-28T09:38:49.320Z,2.85
2022-07-28T09:41:19.077Z,2.58
2022-07-28T09:43:49.762Z,2.28
2022-07-28T09:46:24.593Z,2.40
2022-07-28T09:48:54.624Z,2.70
2022-07-28T09:51:28.627Z,2.50
2022-07-28T09:54:08.805Z,2.25
2022-07-28T09:56:35.991Z,2.72
2022-07-28T09:59:03.884Z,2.78
2022-07-28T10:01:37.078Z,2.38
2022-07-28T10:04:04.623Z,2.60
2022-07-28T10:06:33.787Z,2.40
2022-07-28T10:09:03.604Z,2.53
2022-07-28T10:11:31.129Z,2.55
2022-07-28T10:14:05.728Z,2.63
2022-07-28T10:16:35.150Z,2.55
2022-07-28T10:19:04.999Z,2.40
2022-07-28T10:21:34.678Z,2.30
2022-07-28T10:24:18.248Z,2.60
2022-07-28T10:26:47.167Z,2.30
2022-07-28T10:29:16.991Z,2.35
2022-07-28T10:31:53.283Z,2.22
2022-07-28T10:34:31.705Z,2.17
2022-07-28T10:37:02.625Z,2.00
2022-07-28T10:39:36.169Z,2.25
2022-07-28T10:42:03.824Z,2.08
2022-07-28T10:44:31.853Z,2.40
2022-07-28T10:46:59.149Z,2.03
2022-07-28T10:49:32.703Z,2.03
2022-07-28T10:52:06.311Z,2.03
2022-07-28T10:55:20.453Z,1.92
2022-07-28T10:58:19.513Z,2.30
2022-07-28T11:01:02.140Z,2.13
2022-07-28T11:03:47.476Z,1.98
2022-07-28T11:06:31.241Z,2.08
2022-07-28T11:09:17.995Z,2.10
2022-07-28T11:11:59.851Z,1.98
2022-07-28T11:14:27.041Z,2.15
2022-07-28T11:17:00.644Z,2.13
2022-07-28T11:22:34.758Z,1.90
2022-07-28T11:25:20.797Z,2.05
2022-07-28T11:27:50.023Z,2.20
2022-07-28T11:30:22.850Z,2.28
2022-07-28T11:32:53.553Z,2.28
2022-07-28T11:35:27.954Z,2.67
2022-07-28T11:38:01.124Z,1.95
2022-07-28T11:40:31.281Z,1.98
2022-07-28T11:43:36.414Z,2.10
2022-07-28T11:46:07.665Z,1.98
2022-07-28T11:48:47.538Z,2.10
2022-07-28T11:51:16.132Z,2.00
2022-07-28T11:53:47.115Z,2.20
2022-07-28T11:56:29.489Z,2.33
2022-07-28T11:59:01.842Z,1.98
2022-07-28T12:01:31.812Z,2.22
2022-07-28T12:04:00.702Z,2.20
2022-07-28T12:06:49.401Z,2.22
2022-07-28T12:09:25.116Z,2.50
2022-07-28T12:11:55.527Z,2.45
2022-07-28T12:16:56.984Z,2.40
2022-07-28T12:19:24.359Z,2.05
2022-07-28T12:22:00.228Z,2.58
2022-07-28T12:24:29.641Z,2.38
2022-07-28T12:26:57.955Z,2.33
2022-07-28T12:29:24.909Z,2.73
2022-07-28T12:32:04.991Z,2.10
2022-07-28T12:34:40.079Z,2.58
2022-07-28T12:37:12.558Z,2.53
2022-07-28T12:39:42.827Z,2.60
2022-07-28T12:42:11.692Z,2.58
2022-07-28T12:44:43.445Z,2.53
2022-07-28T12:47:12.730Z,2.40
2022-07-28T12:49:42.347Z,2.80
2022-07-28T12:52:15.273Z,2.53
2022-07-28T12:54:42.251Z,2.70
2022-07-28T12:57:48.761Z,2.47
2022-07-28T13:00:19.662Z,2.30
2022-07-28T13:02:47.727Z,2.45
2022-07-28T13:05:58.425Z,2.72
2022-07-28T13:08:27.571Z,2.72
2022-07-28T13:10:58.700Z,2.55
2022-07-28T13:13:27.052Z,2.30
2022-07-28T13:16:14.756Z,2.40
2022-07-28T13:18:43.914Z,2.30
2022-07-28T13:21:11.394Z,2.63
2022-07-28T13:23:38.782Z,2.42
2022-07-28T13:26:07.494Z,2.60
2022-07-28T13:28:35.445Z,2.20
2022-07-28T13:31:02.370Z,2.35
2022-07-28T13:33:29.377Z,2.28
2022-07-28T13:35:56.197Z,2.30
2022-07-28T13:38:23.434Z,2.67
2022-07-28T13:40:50.272Z,2.35
2022-07-28T13:43:16.993Z,2.83
2022-07-28T13:45:44.073Z,2.63
2022-07-28T13:48:11.061Z,2.30
2022-07-28T13:50:37.973Z,2.60
2022-07-28T13:53:04.755Z,2.63
2022-07-28T13:55:31.607Z,3.00
2022-07-28T13:57:58.420Z,2.60
2022-07-28T14:00:26.216Z,2.50
2022-07-28T14:02:53.670Z,2.45
2022-07-28T14:05:21.245Z,2.42
2022-07-28T14:07:49.369Z,2.58
2022-07-28T14:10:18.251Z,2.90
2022-07-28T14:12:46.566Z,2.60
2022-07-28T14:15:13.699Z,2.47
2022-07-28T14:17:44.873Z,3.03
2022-07-28T14:20:14.493Z,2.65
2022-07-28T14:22:42.129Z,2.40
2022-07-28T14:25:09.552Z,3.20
2022-07-28T14:27:36.575Z,2.60
2022-07-28T14:30:05.159Z,2.63
2022-07-28T14:32:33.060Z,2.40
2022-07-28T14:35:02.099Z,2.30
2022-07-28T14:37:36.305Z,2.33
2022-07-28T14:40:14.986Z,2.40
2022-07-28T14:42:41.810Z,2.40
2022-07-28T14:45:09.063Z,2.40
2022-07-28T14:47:44.560Z,2.50
2022-07-28T14:50:13.003Z,2.53
2022-07-28T14:52:44.805Z,2.03
2022-07-28T14:55:12.355Z,2.40
2022-07-28T14:57:45.900Z,2.10
2022-07-28T15:00:17.153Z,2.35
2022-07-28T15:02:45.726Z,2.40
2022-07-28T15:05:12.651Z,2.55
2022-07-28T15:07:39.864Z,1.92
2022-07-28T15:10:13.782Z,2.10
2022-07-28T15:12:40.620Z,2.67
2022-07-28T15:15:08.109Z,2.20
2022-07-28T15:17:37.670Z,2.22
2022-07-28T15:20:07.314Z,2.05
2022-07-28T15:22:34.886Z,2.45
2022-07-28T15:25:01.872Z,2.40
2022-07-28T15:27:33.212Z,2.70
2022-07-28T15:30:02.621Z,2.90
2022-07-28T15:32:31.493Z,2.30
2022-07-28T15:34:58.489Z,1.98
2022-07-28T15:37:25.206Z,2.50
2022-07-28T15:39:51.952Z,2.42
2022-07-28T15:42:18.864Z,2.60
2022-07-28T15:44:45.630Z,2.50
2022-07-28T15:47:12.419Z,2.60
2022-07-28T15:49:39.235Z,2.50
2022-07-28T15:52:06.272Z,2.30
2022-07-28T15:54:33.068Z,2.30
2022-07-28T15:56:59.930Z,2.22
2022-07-28T15:59:49.865Z,2.22
2022-07-28T16:02:17.486Z,2.28
2022-07-28T16:04:53.235Z,2.30
2022-07-28T16:07:28.133Z,2.22
2022-07-28T16:09:55.791Z,2.22
2022-07-28T16:12:25.483Z,2.53
2022-07-28T16:14:54.201Z,2.40
2022-07-28T16:17:26.459Z,2.03
2022-07-28T16:19:54.185Z,2.60
2022-07-28T16:22:21.289Z,2.20
2022-07-28T16:24:48.687Z,2.10
2022-07-28T16:27:15.550Z,2.10
2022-07-28T16:29:43.532Z,1.90
2022-07-28T16:32:10.510Z,2.78
2022-07-28T16:34:37.417Z,2.70
2022-07-28T16:37:05.062Z,2.55
2022-07-28T16:39:33.937Z,2.55
2022-07-28T16:42:01.511Z,2.30
2022-07-28T16:44:28.807Z,2.40
2022-07-28T16:46:55.888Z,2.58
2022-07-28T16:49:23.064Z,2.40
2022-07-28T16:51:50.315Z,2.53
2022-07-28T16:54:17.709Z,2.15
2022-07-28T16:56:45.322Z,2.40
2022-07-28T16:59:12.033Z,2.40
2022-07-28T17:01:42.223Z,2.40
2022-07-28T17:04:13.005Z,2.30
2022-07-28T17:06:40.103Z,2.47
2022-07-28T17:09:07.196Z,2.42
2022-07-28T17:11:33.966Z,2.20
2022-07-28T17:14:01.033Z,2.20
2022-07-28T17:16:28.299Z,2.50
2022-07-28T17:18:55.445Z,2.40
2022-07-28T17:21:22.566Z,2.40
2022-07-28T17:23:49.450Z,2.20
2022-07-28T17:27:19.393Z,2.28
2022-07-28T17:29:03.054Z,2.20
2022-07-28T17:31:33.701Z,2.47
2022-07-28T17:34:01.110Z,2.17
2022-07-28T17:36:28.154Z,2.70
2022-07-28T17:38:54.942Z,2.60
2022-07-28T17:41:22.021Z,2.35
2022-07-28T17:43:48.785Z,2.30
2022-07-28T17:46:15.650Z,2.47
2022-07-28T17:48:42.680Z,2.40
2022-07-28T17:51:09.667Z,2.40
2022-07-28T17:53:39.362Z,2.10
2022-07-28T17:56:07.010Z,2.42
2022-07-28T17:58:35.997Z,2.35
2022-07-28T18:01:14.032Z,2.60
2022-07-28T18:03:59.468Z,2.10
2022-07-28T18:06:28.692Z,2.30
2022-07-28T18:09:06.392Z,2.10
2022-07-28T18:11:57.245Z,2.38
2022-07-28T18:14:29.897Z,2.40
2022-07-28T18:16:59.692Z,2.50
2022-07-28T18:19:35.235Z,2.20
2022-07-28T18:22:04.179Z,2.70
2022-07-28T18:25:06.002Z,2.40
2022-07-28T18:27:33.470Z,2.20
2022-07-28T18:30:02.960Z,2.53
2022-07-28T18:32:44.555Z,2.30
2022-07-28T18:35:15.829Z,2.20
2022-07-28T18:37:45.945Z,2.17
2022-07-28T18:40:15.389Z,2.45
2022-07-28T18:42:43.325Z,2.53
2022-07-28T18:45:14.883Z,2.33
2022-07-28T18:47:46.471Z,2.40
2022-07-28T18:50:30.361Z,2.60
2022-07-28T18:52:59.595Z,2.67
2022-07-28T18:55:28.213Z,2.42
2022-07-28T18:57:56.235Z,2.40
2022-07-28T19:00:24.247Z,2.15
2022-07-28T19:02:52.472Z,2.20
2022-07-28T19:05:36.724Z,3.30
2022-07-28T19:08:06.875Z,2.60
2022-07-28T19:10:33.816Z,2.50
2022-07-28T19:13:00.881Z,2.80
2022-07-28T19:15:28.192Z,2.75
2022-07-28T19:18:10.254Z,2.30
2022-07-28T19:20:46.611Z,2.42
2022-07-28T19:23:13.436Z,2.53
2022-07-28T19:25:40.281Z,2.65
2022-07-28T19:28:07.493Z,2.30
2022-07-28T19:30:35.150Z,2.50
2022-07-28T19:33:03.322Z,2.60
2022-07-28T19:35:30.442Z,2.67
2022-07-28T19:38:00.111Z,3.17
2022-07-28T19:40:31.986Z,2.72
2022-07-28T19:42:59.667Z,2.70
2022-07-28T19:45:26.723Z,2.70
2022-07-28T19:47:54.814Z,2.47
2022-07-28T19:50:21.877Z,2.63
2022-07-28T19:52:49.058Z,2.65
2022-07-28T19:55:17.613Z,2.40
2022-07-28T19:57:47.995Z,2.65
2022-07-28T20:00:19.423Z,2.70
2022-07-28T20:02:46.771Z,2.55
2022-07-28T20:05:13.610Z,2.58
2022-07-28T20:07:40.532Z,2.35
2022-07-28T20:10:07.506Z,2.40
2022-07-28T20:12:36.821Z,2.33
2022-07-28T20:17:39.491Z,2.63
2022-07-28T20:20:12.879Z,2.70
2022-07-28T20:22:41.360Z,2.60
2022-07-28T20:25:10.050Z,2.50
2022-07-28T20:27:39.949Z,2.37
2022-07-28T20:30:12.552Z,2.70
2022-07-28T20:32:40.313Z,2.47
2022-07-28T20:35:08.819Z,2.63
2022-07-28T20:37:37.690Z,2.70
2022-07-28T20:40:06.807Z,2.50
2022-07-28T20:42:33.937Z,2.72
2022-07-28T20:45:01.403Z,2.35
2022-07-28T20:47:28.750Z,2.25
2022-07-28T20:49:55.728Z,2.40
2022-07-28T20:52:23.714Z,2.53
2022-07-28T20:54:54.259Z,2.40
2022-07-28T20:57:22.615Z,2.70
2022-07-28T20:59:51.570Z,2.72
2022-07-28T21:02:20.563Z,2.80
2022-07-28T21:04:50.351Z,2.53
2022-07-28T21:07:59.969Z,2.35
2022-07-28T21:10:07.627Z,2.42
2022-07-28T21:12:38.855Z,2.40
2022-07-28T21:15:06.672Z,2.30
2022-07-28T21:17:33.590Z,2.35
2022-07-28T21:20:00.594Z,2.63
2022-07-28T21:22:27.474Z,2.60
2022-07-28T21:24:55.508Z,2.70
2022-07-28T21:27:23.143Z,2.70
2022-07-28T21:32:17.987Z,2.50
2022-07-28T21:34:44.932Z,2.70
2022-07-28T21:37:14.267Z,2.38
2022-07-28T21:39:41.181Z,2.58
2022-07-28T21:42:09.077Z,2.55
2022-07-28T21:44:37.222Z,2.55
2022-07-28T21:47:05.722Z,2.45
2022-07-28T21:49:32.678Z,2.42
2022-07-28T21:52:00.670Z,2.42
2022-07-28T21:54:28.019Z,2.42
2022-07-28T21:56:54.851Z,2.60
2022-07-28T21:59:21.910Z,2.60
2022-07-28T22:01:51.943Z,2.33
2022-07-28T22:04:19.618Z,2.60
2022-07-28T22:06:46.961Z,2.38
2022-07-28T22:09:14.605Z,2.63
2022-07-28T22:11:41.913Z,2.55
2022-07-28T22:14:08.841Z,2.70
2022-07-28T22:16:35.782Z,2.50
2022-07-28T22:19:03.235Z,2.60
2022-07-28T22:21:30.504Z,2.80
2022-07-28T22:23:57.301Z,2.60
2022-07-28T22:26:24.080Z,2.60
2022-07-28T22:28:50.813Z,2.33
2022-07-28T22:31:17.707Z,2.75
2022-07-28T22:33:44.632Z,2.88
2022-07-28T22:36:11.581Z,2.47
2022-07-28T22:38:38.453Z,2.90
2022-07-28T22:41:05.595Z,3.20
2022-07-28T22:43:33.778Z,2.97
2022-07-28T22:46:00.834Z,2.63
2022-07-28T22:48:27.953Z,2.30
2022-07-28T22:50:54.873Z,2.88
2022-07-28T22:53:21.652Z,2.55
2022-07-28T22:55:48.444Z,2.78
2022-07-28T22:58:15.267Z,2.80
2022-07-28T23:06:12.312Z,2.92
2022-07-28T23:08:39.186Z,3.00
2022-07-28T23:11:06.234Z,3.00
2022-07-28T23:13:33.071Z,2.80
2022-07-28T23:15:59.947Z,3.08
2022-07-28T23:18:26.786Z,3.35
2022-07-28T23:20:53.614Z,3.05
2022-07-28T23:23:21.373Z,3.42
2022-07-28T23:25:48.108Z,3.22
2022-07-28T23:28:14.927Z,2.90
2022-07-28T23:30:41.742Z,2.70
2022-07-28T23:33:08.625Z,2.50
2022-07-28T23:35:42.882Z,2.60
2022-07-28T23:38:09.732Z,2.95
2022-07-28T23:40:36.644Z,2.97
2022-07-28T23:43:03.579Z,2.80
2022-07-28T23:45:30.356Z,2.75
2022-07-28T23:47:58.983Z,2.47
2022-07-28T23:50:26.742Z,2.70
2022-07-28T23:52:53.536Z,2.63
2022-07-28T23:55:20.427Z,3.08
2022-07-28T23:57:47.236Z,2.47
